Accueil
METAR-TAF:

METAR-TAF

Aéroports :

Utsunomiya, Japon

latitude: 36-31N, longitude: 139-52E, altitude: 102 m

Observation

Le bulletin a été fait il y a 1 heure et 9 minutes, à 05:30 UTC
Vent 5 kt de nord-est, variant entre nord et est/nord-est
Température 34°C
Humidité 53%
Pression 1007 hPa
Visibilité 10 km ou plus
Quelques nuages à une hauteur de 3000 ft
Quelques nuages à une hauteur de 3500 ft, Cumulonimbus.
Nuages fragmentés à une hauteur de 23000 ft
orage, pluie faible

METAR: RJTU 250530Z 04005KT 010V070 9999 -TSRA FEW030 FEW035CB BKN230 34/23 Q1007 RMK 2CU030 1CB035 5CI230 A2975 FBL TS 15KM NW MOV SE

Heure: 15:39 (06:39 UTC)


TAF: absent

Observations et prévisions météorologiques de plus de 4000 aéroports (messages METAR et TAF).

Les stations disponibles sont représentées par des disques jaunes et rouges sur la carte.

Passer la souris dessus pour voir le nom de la station.

Cliquer dessus pour voir les observations et prévisions météorologiques.

Pour changer de carte: cliquez sur les boutons verts avec une croix noire pour zoomer, sur le bouton vert avec un tiret pour effectuer un zoom arrière, ou sur les flèches vertes pour les cartes adjacentes.


METAR-TAF: